Nordic Harrier — V7VH2 — position and weather

sailwx.info

Track history (hours):
 
Tides and Currents Weather Stations Pressure Air Temp Water Temp Dewpoint Dewpoint Depression Visibility Wind Speed Wind Dir Waves Ship Positions

Nordic Harrier

Last reported at 2015-Feb-21 17:28 UTC. Time now 2015-Mar-07 01:39 UTC.
Position N 07°03' E 077°57'.
Warning: this ship's position is 13 days out of date.

Length 274 m; draft 9.1 m.

Type: Ship. MMSI: 538004121.

Date/timePositionNaut miles runAvg speedWind from/ knotsBaromVisibWave heightAir tempDewpointWater temp
2015-Feb-21 17:28N 07°03' E 077°57'10 9.6
2015-Feb-21 16:28N 06°57' E 078°05'10 9.7
2015-Feb-21 15:26N 06°53' E 078°13'10 9.7
2015-Feb-21 14:25N 06°48' E 078°22'  
2015-Feb-15 19:24N 01°12' E 103°52'4 4.5
2015-Feb-15 18:31N 01°16' E 103°55'0 0.0
2015-Feb-15 17:13N 01°16' E 103°54'0 0.1
2015-Feb-15 16:13N 01°16' E 103°55'0 0.1
2015-Feb-15 15:13N 01°16' E 103°54'0 0.1
2015-Feb-15 14:07N 01°16' E 103°55'0 0.0
2015-Feb-15 13:13N 01°16' E 103°55'0 0.0
2015-Feb-15 12:19N 01°16' E 103°55'0 0.0
2015-Feb-15 11:25N 01°16' E 103°55'0 0.1
2015-Feb-15 09:25N 01°16' E 103°55'0 0.1
2015-Feb-15 08:31N 01°16' E 103°55'0 0.1
2015-Feb-15 07:31N 01°16' E 103°55'0 0.1
2015-Feb-15 06:19N 01°16' E 103°55'2 2.8
2015-Feb-15 05:33N 01°16' E 103°57'3 2.8
2015-Feb-15 04:32N 01°16' E 103°60'6 5.3
2015-Feb-15 03:28N 01°16' E 104°05'8 8.2
2015-Feb-15 02:33N 01°18' E 104°13'  
Track history (hours):
 
Tides and Currents Weather Stations Pressure Air Temp Water Temp Dewpoint Dewpoint Depression Visibility Wind Speed Wind Dir Waves Ship Positions

Nordic Harrier

Last reported at 2015-Feb-21 17:28 UTC. Time now 2015-Mar-07 01:39 UTC.
Position N 07°03' E 077°57'.
Warning: this ship's position is 13 days out of date.

Length 274 m; draft 9.1 m.

Type: Ship. MMSI: 538004121.

Date/timePositionNaut miles runAvg speedWind from/ knotsBaromVisibWave heightAir tempDewpointWater temp
2015-Feb-21 17:28N 07°03' E 077°57'10 9.6
2015-Feb-21 16:28N 06°57' E 078°05'10 9.7
2015-Feb-21 15:26N 06°53' E 078°13'10 9.7
2015-Feb-21 14:25N 06°48' E 078°22'  
2015-Feb-15 19:24N 01°12' E 103°52'4 4.5
2015-Feb-15 18:31N 01°16' E 103°55'0 0.0
2015-Feb-15 17:13N 01°16' E 103°54'0 0.1
2015-Feb-15 16:13N 01°16' E 103°55'0 0.1
2015-Feb-15 15:13N 01°16' E 103°54'0 0.1
2015-Feb-15 14:07N 01°16' E 103°55'0 0.0
2015-Feb-15 13:13N 01°16' E 103°55'0 0.0
2015-Feb-15 12:19N 01°16' E 103°55'0 0.0
2015-Feb-15 11:25N 01°16' E 103°55'0 0.1
2015-Feb-15 09:25N 01°16' E 103°55'0 0.1
2015-Feb-15 08:31N 01°16' E 103°55'0 0.1
2015-Feb-15 07:31N 01°16' E 103°55'0 0.1
2015-Feb-15 06:19N 01°16' E 103°55'2 2.8
2015-Feb-15 05:33N 01°16' E 103°57'3 2.8
2015-Feb-15 04:32N 01°16' E 103°60'6 5.3
2015-Feb-15 03:28N 01°16' E 104°05'8 8.2
2015-Feb-15 02:33N 01°18' E 104°13'  

Dump ship's entire track history